sensor_id;sensor_type;location;lat;lon;timestamp;P1;durP1;ratioP1;P2;durP2;ratioP2
36257;SDS011;22294;52.044;4.582;2022-12-18T00:01:33;97.75;;;32.20;;
36257;SDS011;22294;52.044;4.582;2022-12-18T00:04:04;98.90;;;32.17;;
36257;SDS011;22294;52.044;4.582;2022-12-18T00:06:31;96.82;;;33.30;;
36257;SDS011;22294;52.044;4.582;2022-12-18T00:08:58;95.07;;;31.45;;
36257;SDS011;22294;52.044;4.582;2022-12-18T00:11:25;100.10;;;32.60;;
36257;SDS011;22294;52.044;4.582;2022-12-18T00:13:54;93.90;;;31.73;;
36257;SDS011;22294;52.044;4.582;2022-12-18T00:16:21;94.80;;;30.70;;
36257;SDS011;22294;52.044;4.582;2022-12-18T00:18:49;89.78;;;32.47;;
36257;SDS011;22294;52.044;4.582;2022-12-18T00:21:16;99.43;;;32.13;;
36257;SDS011;22294;52.044;4.582;2022-12-18T00:23:43;90.53;;;31.13;;
36257;SDS011;22294;52.044;4.582;2022-12-18T00:26:13;92.65;;;31.30;;
36257;SDS011;22294;52.044;4.582;2022-12-18T00:28:45;91.15;;;31.60;;
36257;SDS011;22294;52.044;4.582;2022-12-18T00:31:12;86.10;;;31.40;;
36257;SDS011;22294;52.044;4.582;2022-12-18T00:33:41;85.18;;;30.73;;
36257;SDS011;22294;52.044;4.582;2022-12-18T00:36:09;91.43;;;31.45;;
36257;SDS011;22294;52.044;4.582;2022-12-18T00:38:36;94.60;;;34.47;;
36257;SDS011;22294;52.044;4.582;2022-12-18T00:41:03;94.07;;;31.45;;
36257;SDS011;22294;52.044;4.582;2022-12-18T00:43:30;88.15;;;31.20;;
36257;SDS011;22294;52.044;4.582;2022-12-18T00:45:55;88.43;;;30.92;;
36257;SDS011;22294;52.044;4.582;2022-12-18T00:48:20;81.35;;;29.98;;
36257;SDS011;22294;52.044;4.582;2022-12-18T00:50:47;82.72;;;28.48;;
36257;SDS011;22294;52.044;4.582;2022-12-18T00:53:13;91.45;;;31.17;;
36257;SDS011;22294;52.044;4.582;2022-12-18T00:55:39;85.90;;;30.25;;
36257;SDS011;22294;52.044;4.582;2022-12-18T00:58:05;85.75;;;30.23;;
36257;SDS011;22294;52.044;4.582;2022-12-18T01:00:30;89.20;;;31.20;;
36257;SDS011;22294;52.044;4.582;2022-12-18T01:02:56;79.45;;;30.80;;
36257;SDS011;22294;52.044;4.582;2022-12-18T01:05:21;92.03;;;30.75;;
36257;SDS011;22294;52.044;4.582;2022-12-18T01:07:46;88.40;;;31.25;;
36257;SDS011;22294;52.044;4.582;2022-12-18T01:10:12;88.97;;;32.10;;
36257;SDS011;22294;52.044;4.582;2022-12-18T01:12:38;95.22;;;31.80;;
36257;SDS011;22294;52.044;4.582;2022-12-18T01:15:04;89.30;;;30.73;;
36257;SDS011;22294;52.044;4.582;2022-12-18T01:17:30;96.30;;;33.35;;
36257;SDS011;22294;52.044;4.582;2022-12-18T01:19:56;77.25;;;29.42;;
36257;SDS011;22294;52.044;4.582;2022-12-18T01:22:21;83.53;;;28.38;;
36257;SDS011;22294;52.044;4.582;2022-12-18T01:24:47;78.93;;;29.55;;
36257;SDS011;22294;52.044;4.582;2022-12-18T01:27:12;82.43;;;28.30;;
36257;SDS011;22294;52.044;4.582;2022-12-18T01:29:38;77.95;;;28.30;;
36257;SDS011;22294;52.044;4.582;2022-12-18T01:32:03;80.82;;;28.65;;
36257;SDS011;22294;52.044;4.582;2022-12-18T01:34:28;85.10;;;29.27;;
36257;SDS011;22294;52.044;4.582;2022-12-18T01:36:54;80.30;;;27.75;;
36257;SDS011;22294;52.044;4.582;2022-12-18T01:39:19;89.85;;;28.98;;
36257;SDS011;22294;52.044;4.582;2022-12-18T01:41:44;78.53;;;28.65;;
36257;SDS011;22294;52.044;4.582;2022-12-18T01:47:15;82.32;;;30.02;;
36257;SDS011;22294;52.044;4.582;2022-12-18T01:49:45;94.07;;;27.92;;
36257;SDS011;22294;52.044;4.582;2022-12-18T01:52:10;79.70;;;26.00;;
36257;SDS011;22294;52.044;4.582;2022-12-18T01:54:35;80.03;;;26.77;;
36257;SDS011;22294;52.044;4.582;2022-12-18T01:57:01;74.97;;;27.00;;
36257;SDS011;22294;52.044;4.582;2022-12-18T01:59:26;71.10;;;26.65;;
36257;SDS011;22294;52.044;4.582;2022-12-18T02:01:52;76.05;;;27.33;;
36257;SDS011;22294;52.044;4.582;2022-12-18T02:06:43;71.23;;;28.33;;
36257;SDS011;22294;52.044;4.582;2022-12-18T02:09:17;67.65;;;26.83;;
36257;SDS011;22294;52.044;4.582;2022-12-18T02:11:50;74.27;;;26.83;;
36257;SDS011;22294;52.044;4.582;2022-12-18T02:17:03;66.43;;;25.05;;
36257;SDS011;22294;52.044;4.582;2022-12-18T02:22:34;65.88;;;25.17;;
36257;SDS011;22294;52.044;4.582;2022-12-18T02:27:45;64.45;;;24.70;;
36257;SDS011;22294;52.044;4.582;2022-12-18T02:30:14;73.07;;;26.40;;
36257;SDS011;22294;52.044;4.582;2022-12-18T02:32:41;66.53;;;25.33;;
36257;SDS011;22294;52.044;4.582;2022-12-18T02:35:15;74.45;;;27.90;;
36257;SDS011;22294;52.044;4.582;2022-12-18T02:37:44;70.20;;;26.67;;
36257;SDS011;22294;52.044;4.582;2022-12-18T02:40:11;67.15;;;26.45;;
36257;SDS011;22294;52.044;4.582;2022-12-18T02:42:39;68.13;;;25.60;;
36257;SDS011;22294;52.044;4.582;2022-12-18T02:45:04;68.70;;;25.38;;
36257;SDS011;22294;52.044;4.582;2022-12-18T02:47:31;75.93;;;26.38;;
36257;SDS011;22294;52.044;4.582;2022-12-18T03:00:48;67.28;;;24.65;;
36257;SDS011;22294;52.044;4.582;2022-12-18T03:03:25;78.53;;;26.95;;
36257;SDS011;22294;52.044;4.582;2022-12-18T03:06:07;87.28;;;26.20;;
36257;SDS011;22294;52.044;4.582;2022-12-18T03:08:38;71.38;;;25.05;;
36257;SDS011;22294;52.044;4.582;2022-12-18T03:11:09;84.03;;;26.92;;
36257;SDS011;22294;52.044;4.582;2022-12-18T03:13:41;78.35;;;26.83;;
36257;SDS011;22294;52.044;4.582;2022-12-18T03:16:12;96.03;;;28.13;;
36257;SDS011;22294;52.044;4.582;2022-12-18T03:18:45;80.22;;;27.42;;
36257;SDS011;22294;52.044;4.582;2022-12-18T03:21:14;74.43;;;27.98;;
36257;SDS011;22294;52.044;4.582;2022-12-18T03:23:44;72.13;;;26.27;;
36257;SDS011;22294;52.044;4.582;2022-12-18T03:26:15;76.10;;;26.75;;
36257;SDS011;22294;52.044;4.582;2022-12-18T03:28:53;78.15;;;27.13;;
36257;SDS011;22294;52.044;4.582;2022-12-18T03:31:23;76.30;;;28.83;;
36257;SDS011;22294;52.044;4.582;2022-12-18T03:36:24;72.55;;;26.33;;
36257;SDS011;22294;52.044;4.582;2022-12-18T03:38:49;73.57;;;27.00;;
36257;SDS011;22294;52.044;4.582;2022-12-18T03:41:16;73.07;;;25.88;;
36257;SDS011;22294;52.044;4.582;2022-12-18T03:43:50;74.38;;;28.05;;
36257;SDS011;22294;52.044;4.582;2022-12-18T03:46:24;77.93;;;27.13;;
36257;SDS011;22294;52.044;4.582;2022-12-18T03:49:12;75.82;;;26.42;;
36257;SDS011;22294;52.044;4.582;2022-12-18T03:51:54;74.63;;;27.10;;
36257;SDS011;22294;52.044;4.582;2022-12-18T03:54:28;70.25;;;25.77;;
36257;SDS011;22294;52.044;4.582;2022-12-18T03:56:57;79.28;;;27.92;;
36257;SDS011;22294;52.044;4.582;2022-12-18T04:02:02;65.30;;;24.77;;
36257;SDS011;22294;52.044;4.582;2022-12-18T04:04:31;64.85;;;24.33;;
36257;SDS011;22294;52.044;4.582;2022-12-18T04:06:58;67.30;;;24.30;;
36257;SDS011;22294;52.044;4.582;2022-12-18T04:09:24;66.72;;;24.98;;
36257;SDS011;22294;52.044;4.582;2022-12-18T04:11:51;66.35;;;26.25;;
36257;SDS011;22294;52.044;4.582;2022-12-18T04:14:16;59.85;;;23.65;;
36257;SDS011;22294;52.044;4.582;2022-12-18T04:16:42;65.88;;;25.15;;
36257;SDS011;22294;52.044;4.582;2022-12-18T04:19:07;59.28;;;24.23;;
36257;SDS011;22294;52.044;4.582;2022-12-18T04:21:33;63.55;;;25.48;;
36257;SDS011;22294;52.044;4.582;2022-12-18T04:23:58;58.95;;;23.90;;
36257;SDS011;22294;52.044;4.582;2022-12-18T04:26:23;59.00;;;22.20;;
36257;SDS011;22294;52.044;4.582;2022-12-18T04:28:49;58.88;;;23.75;;
36257;SDS011;22294;52.044;4.582;2022-12-18T04:31:14;57.67;;;24.80;;
36257;SDS011;22294;52.044;4.582;2022-12-18T04:33:39;60.67;;;23.75;;
36257;SDS011;22294;52.044;4.582;2022-12-18T04:36:04;59.63;;;23.38;;
36257;SDS011;22294;52.044;4.582;2022-12-18T04:38:30;59.13;;;23.33;;
36257;SDS011;22294;52.044;4.582;2022-12-18T04:40:55;61.45;;;23.70;;
36257;SDS011;22294;52.044;4.582;2022-12-18T04:43:21;63.35;;;24.52;;
36257;SDS011;22294;52.044;4.582;2022-12-18T04:45:46;61.25;;;24.05;;
36257;SDS011;22294;52.044;4.582;2022-12-18T04:48:11;68.78;;;25.35;;
36257;SDS011;22294;52.044;4.582;2022-12-18T04:50:37;66.88;;;24.35;;
36257;SDS011;22294;52.044;4.582;2022-12-18T04:53:02;63.13;;;23.70;;
36257;SDS011;22294;52.044;4.582;2022-12-18T04:55:27;63.22;;;25.95;;
36257;SDS011;22294;52.044;4.582;2022-12-18T04:57:53;67.68;;;25.85;;
36257;SDS011;22294;52.044;4.582;2022-12-18T05:00:18;57.63;;;24.35;;
36257;SDS011;22294;52.044;4.582;2022-12-18T05:02:44;62.05;;;24.50;;
36257;SDS011;22294;52.044;4.582;2022-12-18T05:05:09;65.93;;;24.95;;
36257;SDS011;22294;52.044;4.582;2022-12-18T05:07:35;72.05;;;25.58;;
36257;SDS011;22294;52.044;4.582;2022-12-18T05:10:00;61.65;;;24.38;;
36257;SDS011;22294;52.044;4.582;2022-12-18T05:12:25;76.40;;;26.65;;
36257;SDS011;22294;52.044;4.582;2022-12-18T05:14:51;63.20;;;24.60;;
36257;SDS011;22294;52.044;4.582;2022-12-18T05:17:16;58.10;;;23.33;;
36257;SDS011;22294;52.044;4.582;2022-12-18T05:19:42;62.40;;;25.50;;
36257;SDS011;22294;52.044;4.582;2022-12-18T05:22:08;58.67;;;24.50;;
36257;SDS011;22294;52.044;4.582;2022-12-18T05:24:33;65.03;;;25.38;;
36257;SDS011;22294;52.044;4.582;2022-12-18T05:26:59;68.45;;;26.50;;
36257;SDS011;22294;52.044;4.582;2022-12-18T05:29:24;62.40;;;25.58;;
36257;SDS011;22294;52.044;4.582;2022-12-18T05:31:50;63.45;;;25.20;;
36257;SDS011;22294;52.044;4.582;2022-12-18T05:34:15;69.75;;;27.27;;
36257;SDS011;22294;52.044;4.582;2022-12-18T05:36:40;68.75;;;26.73;;
36257;SDS011;22294;52.044;4.582;2022-12-18T05:39:05;73.57;;;27.38;;
36257;SDS011;22294;52.044;4.582;2022-12-18T05:41:31;68.93;;;26.10;;
36257;SDS011;22294;52.044;4.582;2022-12-18T05:43:56;61.05;;;25.80;;
36257;SDS011;22294;52.044;4.582;2022-12-18T05:46:23;60.88;;;25.27;;
36257;SDS011;22294;52.044;4.582;2022-12-18T05:48:49;70.25;;;26.05;;
36257;SDS011;22294;52.044;4.582;2022-12-18T05:51:16;66.70;;;25.98;;
36257;SDS011;22294;52.044;4.582;2022-12-18T05:53:43;57.72;;;23.88;;
36257;SDS011;22294;52.044;4.582;2022-12-18T05:56:11;62.85;;;25.27;;
36257;SDS011;22294;52.044;4.582;2022-12-18T05:58:38;58.40;;;24.08;;
36257;SDS011;22294;52.044;4.582;2022-12-18T06:01:13;64.07;;;24.92;;
36257;SDS011;22294;52.044;4.582;2022-12-18T06:03:43;63.88;;;24.58;;
36257;SDS011;22294;52.044;4.582;2022-12-18T06:06:27;56.50;;;23.92;;
36257;SDS011;22294;52.044;4.582;2022-12-18T06:08:53;61.65;;;26.08;;
36257;SDS011;22294;52.044;4.582;2022-12-18T06:11:20;63.38;;;25.05;;
36257;SDS011;22294;52.044;4.582;2022-12-18T06:13:51;58.75;;;24.17;;
36257;SDS011;22294;52.044;4.582;2022-12-18T06:16:21;59.03;;;24.90;;
36257;SDS011;22294;52.044;4.582;2022-12-18T06:18:47;57.35;;;23.45;;
36257;SDS011;22294;52.044;4.582;2022-12-18T06:21:12;58.00;;;23.23;;
36257;SDS011;22294;52.044;4.582;2022-12-18T06:23:37;50.13;;;22.50;;
36257;SDS011;22294;52.044;4.582;2022-12-18T06:26:04;53.15;;;22.33;;
36257;SDS011;22294;52.044;4.582;2022-12-18T06:28:34;55.10;;;22.20;;
36257;SDS011;22294;52.044;4.582;2022-12-18T06:30:59;54.40;;;22.00;;
36257;SDS011;22294;52.044;4.582;2022-12-18T06:33:28;52.42;;;21.35;;
36257;SDS011;22294;52.044;4.582;2022-12-18T06:35:53;57.08;;;21.42;;
36257;SDS011;22294;52.044;4.582;2022-12-18T06:38:24;47.03;;;20.13;;
36257;SDS011;22294;52.044;4.582;2022-12-18T06:40:50;46.90;;;20.58;;
36257;SDS011;22294;52.044;4.582;2022-12-18T06:43:15;49.00;;;20.48;;
36257;SDS011;22294;52.044;4.582;2022-12-18T06:45:43;46.97;;;19.33;;
36257;SDS011;22294;52.044;4.582;2022-12-18T06:48:08;42.17;;;19.10;;
36257;SDS011;22294;52.044;4.582;2022-12-18T06:50:34;41.95;;;18.50;;
36257;SDS011;22294;52.044;4.582;2022-12-18T06:52:59;46.03;;;20.25;;
36257;SDS011;22294;52.044;4.582;2022-12-18T06:55:24;46.08;;;18.48;;
36257;SDS011;22294;52.044;4.582;2022-12-18T06:57:50;40.10;;;18.48;;
36257;SDS011;22294;52.044;4.582;2022-12-18T07:00:15;42.67;;;18.85;;
36257;SDS011;22294;52.044;4.582;2022-12-18T07:02:41;44.63;;;19.00;;
36257;SDS011;22294;52.044;4.582;2022-12-18T07:05:06;43.80;;;19.88;;
36257;SDS011;22294;52.044;4.582;2022-12-18T07:07:33;43.58;;;18.13;;
36257;SDS011;22294;52.044;4.582;2022-12-18T07:09:59;46.60;;;19.20;;
36257;SDS011;22294;52.044;4.582;2022-12-18T07:12:24;43.83;;;19.70;;
36257;SDS011;22294;52.044;4.582;2022-12-18T07:14:51;40.78;;;19.25;;
36257;SDS011;22294;52.044;4.582;2022-12-18T07:17:16;44.35;;;20.73;;
36257;SDS011;22294;52.044;4.582;2022-12-18T07:19:41;45.20;;;19.40;;
36257;SDS011;22294;52.044;4.582;2022-12-18T07:22:07;42.58;;;19.73;;
36257;SDS011;22294;52.044;4.582;2022-12-18T07:24:32;40.03;;;18.25;;
36257;SDS011;22294;52.044;4.582;2022-12-18T07:26:59;47.22;;;18.95;;
36257;SDS011;22294;52.044;4.582;2022-12-18T07:29:24;40.75;;;19.63;;
36257;SDS011;22294;52.044;4.582;2022-12-18T07:31:49;38.38;;;18.20;;
36257;SDS011;22294;52.044;4.582;2022-12-18T07:34:14;41.55;;;17.52;;
36257;SDS011;22294;52.044;4.582;2022-12-18T07:36:40;40.50;;;18.92;;
36257;SDS011;22294;52.044;4.582;2022-12-18T07:39:05;41.05;;;18.60;;
36257;SDS011;22294;52.044;4.582;2022-12-18T07:41:31;41.58;;;17.80;;
36257;SDS011;22294;52.044;4.582;2022-12-18T07:43:56;42.63;;;18.02;;
36257;SDS011;22294;52.044;4.582;2022-12-18T07:46:22;34.67;;;17.60;;
36257;SDS011;22294;52.044;4.582;2022-12-18T07:48:47;40.05;;;17.58;;
36257;SDS011;22294;52.044;4.582;2022-12-18T07:51:12;32.67;;;16.02;;
36257;SDS011;22294;52.044;4.582;2022-12-18T07:53:38;38.13;;;18.23;;
36257;SDS011;22294;52.044;4.582;2022-12-18T07:56:05;38.30;;;16.75;;
36257;SDS011;22294;52.044;4.582;2022-12-18T07:58:33;36.42;;;17.10;;
36257;SDS011;22294;52.044;4.582;2022-12-18T08:01:11;34.45;;;16.67;;
36257;SDS011;22294;52.044;4.582;2022-12-18T08:03:37;33.75;;;16.70;;
36257;SDS011;22294;52.044;4.582;2022-12-18T08:06:04;36.53;;;17.20;;
36257;SDS011;22294;52.044;4.582;2022-12-18T08:08:31;37.05;;;16.77;;
36257;SDS011;22294;52.044;4.582;2022-12-18T08:10:58;38.20;;;16.88;;
36257;SDS011;22294;52.044;4.582;2022-12-18T08:13:24;37.03;;;16.42;;
36257;SDS011;22294;52.044;4.582;2022-12-18T08:15:59;39.15;;;17.80;;
36257;SDS011;22294;52.044;4.582;2022-12-18T08:18:26;36.55;;;17.13;;
36257;SDS011;22294;52.044;4.582;2022-12-18T08:20:52;36.20;;;16.77;;
36257;SDS011;22294;52.044;4.582;2022-12-18T08:23:17;35.33;;;17.38;;
36257;SDS011;22294;52.044;4.582;2022-12-18T08:25:43;35.47;;;17.80;;
36257;SDS011;22294;52.044;4.582;2022-12-18T08:28:08;38.45;;;18.35;;
36257;SDS011;22294;52.044;4.582;2022-12-18T08:30:34;36.65;;;16.35;;
36257;SDS011;22294;52.044;4.582;2022-12-18T08:33:00;36.75;;;17.08;;
36257;SDS011;22294;52.044;4.582;2022-12-18T08:35:25;36.50;;;16.75;;
36257;SDS011;22294;52.044;4.582;2022-12-18T08:37:51;32.13;;;16.65;;
36257;SDS011;22294;52.044;4.582;2022-12-18T08:40:17;33.03;;;16.10;;
36257;SDS011;22294;52.044;4.582;2022-12-18T08:42:42;37.38;;;16.83;;
36257;SDS011;22294;52.044;4.582;2022-12-18T08:45:26;38.63;;;17.55;;
36257;SDS011;22294;52.044;4.582;2022-12-18T08:47:52;34.70;;;17.00;;
36257;SDS011;22294;52.044;4.582;2022-12-18T08:50:17;33.50;;;16.55;;
36257;SDS011;22294;52.044;4.582;2022-12-18T08:52:43;36.60;;;16.60;;
36257;SDS011;22294;52.044;4.582;2022-12-18T08:55:08;33.38;;;16.27;;
36257;SDS011;22294;52.044;4.582;2022-12-18T08:57:34;31.98;;;16.55;;
36257;SDS011;22294;52.044;4.582;2022-12-18T08:59:59;32.13;;;16.17;;
36257;SDS011;22294;52.044;4.582;2022-12-18T09:02:25;31.80;;;16.25;;
36257;SDS011;22294;52.044;4.582;2022-12-18T09:04:50;32.70;;;16.08;;
36257;SDS011;22294;52.044;4.582;2022-12-18T09:07:15;34.95;;;17.02;;
36257;SDS011;22294;52.044;4.582;2022-12-18T09:09:41;35.45;;;17.83;;
36257;SDS011;22294;52.044;4.582;2022-12-18T09:12:06;34.53;;;16.88;;
36257;SDS011;22294;52.044;4.582;2022-12-18T09:14:31;33.92;;;16.48;;
36257;SDS011;22294;52.044;4.582;2022-12-18T09:16:57;37.03;;;17.15;;
36257;SDS011;22294;52.044;4.582;2022-12-18T09:19:22;33.85;;;16.55;;
36257;SDS011;22294;52.044;4.582;2022-12-18T09:21:47;33.53;;;17.02;;
36257;SDS011;22294;52.044;4.582;2022-12-18T09:24:13;35.33;;;17.02;;
36257;SDS011;22294;52.044;4.582;2022-12-18T09:26:39;34.00;;;16.92;;
36257;SDS011;22294;52.044;4.582;2022-12-18T09:29:05;29.25;;;15.18;;
36257;SDS011;22294;52.044;4.582;2022-12-18T09:31:32;33.78;;;17.05;;
36257;SDS011;22294;52.044;4.582;2022-12-18T09:33:58;31.27;;;16.27;;
36257;SDS011;22294;52.044;4.582;2022-12-18T09:36:23;31.95;;;17.05;;
36257;SDS011;22294;52.044;4.582;2022-12-18T09:38:48;29.42;;;15.88;;
36257;SDS011;22294;52.044;4.582;2022-12-18T09:44:03;29.40;;;14.38;;
36257;SDS011;22294;52.044;4.582;2022-12-18T09:46:37;32.90;;;15.07;;
36257;SDS011;22294;52.044;4.582;2022-12-18T09:49:10;31.77;;;16.00;;
36257;SDS011;22294;52.044;4.582;2022-12-18T09:51:41;34.03;;;16.30;;
36257;SDS011;22294;52.044;4.582;2022-12-18T09:54:12;30.98;;;16.58;;
36257;SDS011;22294;52.044;4.582;2022-12-18T09:56:42;33.78;;;15.52;;
36257;SDS011;22294;52.044;4.582;2022-12-18T09:59:15;34.38;;;16.65;;
36257;SDS011;22294;52.044;4.582;2022-12-18T10:01:46;29.98;;;14.70;;
36257;SDS011;22294;52.044;4.582;2022-12-18T10:04:11;31.17;;;15.45;;
36257;SDS011;22294;52.044;4.582;2022-12-18T10:12:00;32.90;;;15.80;;
36257;SDS011;22294;52.044;4.582;2022-12-18T10:23:51;26.38;;;15.40;;
36257;SDS011;22294;52.044;4.582;2022-12-18T10:26:37;28.20;;;14.48;;
36257;SDS011;22294;52.044;4.582;2022-12-18T10:29:04;31.40;;;15.68;;
36257;SDS011;22294;52.044;4.582;2022-12-18T10:31:42;33.47;;;16.53;;
36257;SDS011;22294;52.044;4.582;2022-12-18T10:34:11;32.17;;;15.57;;
36257;SDS011;22294;52.044;4.582;2022-12-18T10:36:37;36.03;;;16.55;;
36257;SDS011;22294;52.044;4.582;2022-12-18T10:44:10;27.60;;;14.98;;
36257;SDS011;22294;52.044;4.582;2022-12-18T10:46:53;30.42;;;15.38;;
36257;SDS011;22294;52.044;4.582;2022-12-18T10:49:27;27.05;;;15.85;;
36257;SDS011;22294;52.044;4.582;2022-12-18T10:52:07;32.45;;;16.52;;
36257;SDS011;22294;52.044;4.582;2022-12-18T10:54:40;28.30;;;14.43;;
36257;SDS011;22294;52.044;4.582;2022-12-18T10:57:35;26.48;;;14.40;;
36257;SDS011;22294;52.044;4.582;2022-12-18T11:00:22;32.58;;;17.80;;
36257;SDS011;22294;52.044;4.582;2022-12-18T11:02:49;39.22;;;18.85;;
36257;SDS011;22294;52.044;4.582;2022-12-18T11:05:34;53.42;;;27.63;;
36257;SDS011;22294;52.044;4.582;2022-12-18T11:08:01;64.35;;;27.15;;
36257;SDS011;22294;52.044;4.582;2022-12-18T11:10:31;59.65;;;24.13;;
36257;SDS011;22294;52.044;4.582;2022-12-18T11:15:44;37.15;;;18.20;;
36257;SDS011;22294;52.044;4.582;2022-12-18T11:18:22;35.03;;;18.27;;
36257;SDS011;22294;52.044;4.582;2022-12-18T11:20:53;29.83;;;15.65;;
36257;SDS011;22294;52.044;4.582;2022-12-18T11:23:22;34.20;;;18.85;;
36257;SDS011;22294;52.044;4.582;2022-12-18T11:25:52;31.13;;;16.60;;
36257;SDS011;22294;52.044;4.582;2022-12-18T11:28:27;31.83;;;15.82;;
36257;SDS011;22294;52.044;4.582;2022-12-18T11:31:09;30.67;;;15.60;;
36257;SDS011;22294;52.044;4.582;2022-12-18T11:33:49;28.08;;;15.85;;
36257;SDS011;22294;52.044;4.582;2022-12-18T11:36:15;33.85;;;15.95;;
36257;SDS011;22294;52.044;4.582;2022-12-18T11:38:41;29.80;;;16.95;;
36257;SDS011;22294;52.044;4.582;2022-12-18T11:43:50;28.15;;;14.82;;
36257;SDS011;22294;52.044;4.582;2022-12-18T11:46:55;29.95;;;16.42;;
36257;SDS011;22294;52.044;4.582;2022-12-18T11:49:24;31.50;;;15.75;;
36257;SDS011;22294;52.044;4.582;2022-12-18T11:52:07;28.98;;;15.27;;
36257;SDS011;22294;52.044;4.582;2022-12-18T11:54:52;30.98;;;16.58;;
36257;SDS011;22294;52.044;4.582;2022-12-18T11:57:27;31.38;;;16.67;;
36257;SDS011;22294;52.044;4.582;2022-12-18T12:00:12;33.28;;;16.73;;
36257;SDS011;22294;52.044;4.582;2022-12-18T12:09:03;33.50;;;15.30;;
36257;SDS011;22294;52.044;4.582;2022-12-18T12:11:41;33.85;;;17.42;;
36257;SDS011;22294;52.044;4.582;2022-12-18T12:16:48;31.40;;;16.05;;
36257;SDS011;22294;52.044;4.582;2022-12-18T12:40:19;32.20;;;16.80;;
36257;SDS011;22294;52.044;4.582;2022-12-18T12:42:50;33.15;;;16.35;;
36257;SDS011;22294;52.044;4.582;2022-12-18T12:53:59;30.35;;;16.92;;
36257;SDS011;22294;52.044;4.582;2022-12-18T12:56:30;30.00;;;17.52;;
36257;SDS011;22294;52.044;4.582;2022-12-18T13:04:57;35.65;;;16.90;;
36257;SDS011;22294;52.044;4.582;2022-12-18T13:07:26;30.90;;;17.38;;
36257;SDS011;22294;52.044;4.582;2022-12-18T13:10:13;33.00;;;16.98;;
36257;SDS011;22294;52.044;4.582;2022-12-18T13:15:21;42.25;;;22.05;;
36257;SDS011;22294;52.044;4.582;2022-12-18T13:17:49;32.63;;;17.40;;
36257;SDS011;22294;52.044;4.582;2022-12-18T13:20:35;31.88;;;16.80;;
36257;SDS011;22294;52.044;4.582;2022-12-18T13:30:53;30.08;;;19.42;;
36257;SDS011;22294;52.044;4.582;2022-12-18T13:40:58;31.58;;;16.70;;
36257;SDS011;22294;52.044;4.582;2022-12-18T13:48:56;32.78;;;17.63;;
36257;SDS011;22294;52.044;4.582;2022-12-18T13:51:25;32.65;;;18.08;;
36257;SDS011;22294;52.044;4.582;2022-12-18T13:53:52;36.15;;;19.35;;
36257;SDS011;22294;52.044;4.582;2022-12-18T13:56:27;38.88;;;18.45;;
36257;SDS011;22294;52.044;4.582;2022-12-18T14:01:42;35.72;;;18.80;;
36257;SDS011;22294;52.044;4.582;2022-12-18T14:04:18;35.90;;;18.98;;
36257;SDS011;22294;52.044;4.582;2022-12-18T14:12:32;33.90;;;16.85;;
36257;SDS011;22294;52.044;4.582;2022-12-18T14:20:43;28.77;;;16.42;;
36257;SDS011;22294;52.044;4.582;2022-12-18T14:23:54;34.13;;;18.77;;
36257;SDS011;22294;52.044;4.582;2022-12-18T14:26:01;28.80;;;17.15;;
36257;SDS011;22294;52.044;4.582;2022-12-18T14:28:29;36.80;;;19.17;;
36257;SDS011;22294;52.044;4.582;2022-12-18T14:30:55;40.15;;;18.23;;
36257;SDS011;22294;52.044;4.582;2022-12-18T14:33:22;53.45;;;22.10;;
36257;SDS011;22294;52.044;4.582;2022-12-18T14:40:52;31.67;;;17.38;;
36257;SDS011;22294;52.044;4.582;2022-12-18T14:43:29;31.48;;;17.48;;
36257;SDS011;22294;52.044;4.582;2022-12-18T14:45:57;34.60;;;17.60;;
36257;SDS011;22294;52.044;4.582;2022-12-18T14:48:39;34.17;;;16.95;;
36257;SDS011;22294;52.044;4.582;2022-12-18T14:51:17;33.92;;;17.95;;
36257;SDS011;22294;52.044;4.582;2022-12-18T14:53:48;31.25;;;17.20;;
36257;SDS011;22294;52.044;4.582;2022-12-18T14:56:22;30.08;;;16.17;;
36257;SDS011;22294;52.044;4.582;2022-12-18T14:58:51;30.85;;;17.15;;
36257;SDS011;22294;52.044;4.582;2022-12-18T15:01:21;29.52;;;16.60;;
36257;SDS011;22294;52.044;4.582;2022-12-18T15:03:49;31.73;;;16.52;;
36257;SDS011;22294;52.044;4.582;2022-12-18T15:06:16;32.30;;;16.35;;
36257;SDS011;22294;52.044;4.582;2022-12-18T15:09:21;31.65;;;17.45;;
36257;SDS011;22294;52.044;4.582;2022-12-18T15:11:48;33.47;;;16.80;;
36257;SDS011;22294;52.044;4.582;2022-12-18T15:14:23;26.35;;;15.85;;
36257;SDS011;22294;52.044;4.582;2022-12-18T15:16:59;32.47;;;16.63;;
36257;SDS011;22294;52.044;4.582;2022-12-18T15:19:32;32.72;;;17.45;;
36257;SDS011;22294;52.044;4.582;2022-12-18T15:22:02;31.92;;;18.13;;
36257;SDS011;22294;52.044;4.582;2022-12-18T15:24:29;37.75;;;19.25;;
36257;SDS011;22294;52.044;4.582;2022-12-18T15:26:57;38.95;;;18.80;;
36257;SDS011;22294;52.044;4.582;2022-12-18T15:29:23;34.10;;;16.98;;
36257;SDS011;22294;52.044;4.582;2022-12-18T15:32:03;29.55;;;17.00;;
36257;SDS011;22294;52.044;4.582;2022-12-18T15:34:30;35.10;;;16.75;;
36257;SDS011;22294;52.044;4.582;2022-12-18T15:36:56;34.50;;;16.90;;
36257;SDS011;22294;52.044;4.582;2022-12-18T15:39:22;35.20;;;17.27;;
36257;SDS011;22294;52.044;4.582;2022-12-18T15:41:47;35.63;;;18.10;;
36257;SDS011;22294;52.044;4.582;2022-12-18T15:44:31;35.85;;;16.75;;
36257;SDS011;22294;52.044;4.582;2022-12-18T15:46:57;31.98;;;16.88;;
36257;SDS011;22294;52.044;4.582;2022-12-18T15:49:23;33.00;;;17.95;;
36257;SDS011;22294;52.044;4.582;2022-12-18T15:51:51;30.10;;;16.42;;
36257;SDS011;22294;52.044;4.582;2022-12-18T15:54:18;28.08;;;15.93;;
36257;SDS011;22294;52.044;4.582;2022-12-18T15:57:04;31.95;;;17.40;;
36257;SDS011;22294;52.044;4.582;2022-12-18T15:59:47;34.22;;;18.13;;
36257;SDS011;22294;52.044;4.582;2022-12-18T16:02:14;33.90;;;18.30;;
36257;SDS011;22294;52.044;4.582;2022-12-18T16:04:41;39.42;;;18.92;;
36257;SDS011;22294;52.044;4.582;2022-12-18T16:07:07;34.65;;;18.50;;
36257;SDS011;22294;52.044;4.582;2022-12-18T16:09:32;34.88;;;17.27;;
36257;SDS011;22294;52.044;4.582;2022-12-18T16:11:57;34.53;;;17.65;;
36257;SDS011;22294;52.044;4.582;2022-12-18T16:14:25;31.75;;;17.70;;
36257;SDS011;22294;52.044;4.582;2022-12-18T16:16:53;36.00;;;18.45;;
36257;SDS011;22294;52.044;4.582;2022-12-18T16:19:20;30.85;;;16.85;;
36257;SDS011;22294;52.044;4.582;2022-12-18T16:21:46;32.35;;;16.70;;
36257;SDS011;22294;52.044;4.582;2022-12-18T16:24:13;36.33;;;17.13;;
36257;SDS011;22294;52.044;4.582;2022-12-18T16:26:41;32.22;;;17.40;;
36257;SDS011;22294;52.044;4.582;2022-12-18T16:29:07;33.70;;;18.48;;
36257;SDS011;22294;52.044;4.582;2022-12-18T16:31:33;32.88;;;17.60;;
36257;SDS011;22294;52.044;4.582;2022-12-18T16:36:50;32.05;;;16.98;;
36257;SDS011;22294;52.044;4.582;2022-12-18T16:39:18;30.33;;;16.98;;
36257;SDS011;22294;52.044;4.582;2022-12-18T16:41:43;29.77;;;16.67;;
36257;SDS011;22294;52.044;4.582;2022-12-18T16:44:09;31.35;;;17.10;;
36257;SDS011;22294;52.044;4.582;2022-12-18T16:46:35;33.65;;;17.88;;
36257;SDS011;22294;52.044;4.582;2022-12-18T16:49:01;34.30;;;18.40;;
36257;SDS011;22294;52.044;4.582;2022-12-18T16:51:26;32.90;;;17.85;;
36257;SDS011;22294;52.044;4.582;2022-12-18T16:53:52;31.33;;;17.73;;
36257;SDS011;22294;52.044;4.582;2022-12-18T16:56:19;30.65;;;17.30;;
36257;SDS011;22294;52.044;4.582;2022-12-18T16:58:49;38.17;;;18.40;;